createdAt,value
2023-04-20T00:00:41.065Z,7.17
2023-04-20T00:01:41.134Z,7.17
2023-04-20T00:02:41.113Z,7.15
2023-04-20T00:03:41.191Z,7.15
2023-04-20T00:04:41.748Z,7.14
2023-04-20T00:05:45.188Z,7.13
2023-04-20T00:06:48.162Z,7.13
2023-04-20T00:08:41.360Z,7.13
2023-04-20T00:09:41.078Z,7.11
2023-04-20T00:10:41.076Z,7.1
2023-04-20T00:11:41.076Z,7.12
2023-04-20T00:12:41.067Z,7.11
2023-04-20T00:13:41.059Z,7.12
2023-04-20T00:14:41.070Z,7.12
2023-04-20T00:15:41.077Z,7.12
2023-04-20T00:16:41.087Z,7.13
2023-04-20T00:17:41.094Z,7.12
2023-04-20T00:18:41.078Z,7.09
2023-04-20T00:19:41.068Z,7.11
2023-04-20T00:20:41.064Z,7.11
2023-04-20T00:21:41.087Z,7.12
2023-04-20T00:22:41.075Z,7.12
2023-04-20T00:23:41.059Z,7.12
2023-04-20T00:24:41.071Z,7.13
2023-04-20T00:25:41.907Z,7.12
2023-04-20T00:26:45.317Z,7.13
2023-04-20T00:27:47.496Z,7.14
2023-04-20T00:29:41.272Z,7.12
2023-04-20T00:30:41.085Z,7.09
2023-04-20T00:31:41.082Z,7.03
2023-04-20T00:32:41.101Z,6.99
2023-04-20T00:33:41.071Z,7
2023-04-20T00:34:41.062Z,6.98
2023-04-20T00:35:41.083Z,6.96
2023-04-20T00:36:41.056Z,6.95
2023-04-20T00:37:41.057Z,6.95
2023-04-20T00:38:41.069Z,6.94
2023-04-20T00:39:41.073Z,6.95
2023-04-20T00:40:41.058Z,6.94
2023-04-20T00:41:41.063Z,6.94
2023-04-20T00:42:41.069Z,6.93
2023-04-20T00:43:41.072Z,6.92
2023-04-20T00:44:41.069Z,6.92
2023-04-20T00:45:41.060Z,6.92
2023-04-20T00:46:42.080Z,6.91
2023-04-20T00:47:45.375Z,6.91
2023-04-20T00:48:47.565Z,6.92
2023-04-20T00:50:41.173Z,6.92
2023-04-20T00:51:41.057Z,6.91
2023-04-20T00:52:41.058Z,6.91
2023-04-20T00:53:41.063Z,6.92
2023-04-20T00:54:41.068Z,6.92
2023-04-20T00:55:41.055Z,6.91
2023-04-20T00:56:41.073Z,6.91
2023-04-20T00:57:41.102Z,6.91
2023-04-20T00:58:41.056Z,6.92
2023-04-20T00:59:41.071Z,6.92
2023-04-20T01:00:41.058Z,6.92
2023-04-20T01:01:41.066Z,6.91
2023-04-20T01:02:41.110Z,6.9
2023-04-20T01:03:41.125Z,6.9
2023-04-20T01:04:41.098Z,6.88
2023-04-20T01:05:41.049Z,6.87
2023-04-20T01:06:41.058Z,6.85
2023-04-20T01:07:42.000Z,6.87
2023-04-20T01:08:45.434Z,6.85
2023-04-20T01:09:47.688Z,6.86
2023-04-20T01:11:41.065Z,6.83
2023-04-20T01:12:41.042Z,6.82
2023-04-20T01:13:41.057Z,6.8
2023-04-20T01:14:41.075Z,6.76
2023-04-20T01:15:41.109Z,6.76
2023-04-20T01:16:41.057Z,6.69
2023-04-20T01:17:41.076Z,6.71
2023-04-20T01:18:41.114Z,6.71
2023-04-20T01:19:41.075Z,6.69
2023-04-20T01:20:41.058Z,6.64
2023-04-20T01:21:41.173Z,6.66
2023-04-20T01:22:41.046Z,6.67
2023-04-20T01:23:41.052Z,6.66
2023-04-20T01:24:41.059Z,6.66
2023-04-20T01:25:41.052Z,6.65
2023-04-20T01:26:41.056Z,6.65
2023-04-20T01:27:41.062Z,6.65
2023-04-20T01:28:42.060Z,6.65
2023-04-20T01:29:45.546Z,6.64
2023-04-20T01:30:48.514Z,6.64
2023-04-20T01:32:41.096Z,6.62
2023-04-20T01:33:41.062Z,6.61
2023-04-20T01:34:41.060Z,6.6
2023-04-20T01:35:41.064Z,6.61
2023-04-20T01:36:41.060Z,6.6
2023-04-20T01:37:41.062Z,6.61
2023-04-20T01:38:41.046Z,6.62
2023-04-20T01:39:41.258Z,6.62
2023-04-20T01:40:41.052Z,6.61
2023-04-20T01:41:41.054Z,6.59
2023-04-20T01:42:41.248Z,6.62
2023-04-20T01:43:41.045Z,6.62
2023-04-20T01:44:41.054Z,6.63
2023-04-20T01:45:41.056Z,6.63
2023-04-20T01:46:41.084Z,6.62
2023-04-20T01:47:41.099Z,6.61
2023-04-20T01:48:41.051Z,6.61
2023-04-20T01:49:42.208Z,6.62
2023-04-20T01:50:45.629Z,6.62
2023-04-20T01:51:47.872Z,6.62
2023-04-20T01:53:41.050Z,6.62
2023-04-20T01:54:41.053Z,6.63
2023-04-20T01:55:41.050Z,6.63
2023-04-20T01:56:41.042Z,6.61
2023-04-20T01:57:41.050Z,6.64
2023-04-20T01:58:41.043Z,6.64
2023-04-20T01:59:41.070Z,6.64
2023-04-20T02:00:41.195Z,6.66
2023-04-20T02:01:41.048Z,6.67
2023-04-20T02:02:41.161Z,6.68
2023-04-20T02:03:41.440Z,6.69
2023-04-20T02:04:41.057Z,6.69
2023-04-20T02:05:41.047Z,6.67
2023-04-20T02:06:41.060Z,6.61
2023-04-20T02:07:41.046Z,6.61
2023-04-20T02:08:41.041Z,6.56
2023-04-20T02:09:41.048Z,6.56
2023-04-20T02:10:42.338Z,6.6
2023-04-20T02:11:45.848Z,6.63
2023-04-20T02:12:47.928Z,6.66
2023-04-20T02:14:41.052Z,6.72
2023-04-20T02:15:41.062Z,6.73
2023-04-20T02:16:41.058Z,6.74
2023-04-20T02:17:41.122Z,6.74
2023-04-20T02:18:41.049Z,6.74
2023-04-20T02:19:41.038Z,6.76
2023-04-20T02:20:41.070Z,6.78
2023-04-20T02:21:41.044Z,6.77
2023-04-20T02:22:41.046Z,6.75
2023-04-20T02:23:41.043Z,6.75
2023-04-20T02:24:41.042Z,6.77
2023-04-20T02:25:41.057Z,6.79
2023-04-20T02:26:41.052Z,6.74
2023-04-20T02:27:41.067Z,6.75
2023-04-20T02:28:41.039Z,6.75
2023-04-20T02:29:41.046Z,6.77
2023-04-20T02:30:41.076Z,6.76
2023-04-20T02:31:42.466Z,6.73
2023-04-20T02:32:45.916Z,6.73
2023-04-20T02:33:48.816Z,6.74
2023-04-20T02:35:41.079Z,6.7
2023-04-20T02:36:41.041Z,6.73
2023-04-20T02:37:41.053Z,6.72
2023-04-20T02:38:41.052Z,6.72
2023-04-20T02:39:41.035Z,6.68
2023-04-20T02:40:41.050Z,6.68
2023-04-20T02:41:41.042Z,6.69
2023-04-20T02:42:41.035Z,6.67
2023-04-20T02:43:41.031Z,6.68
2023-04-20T02:44:41.045Z,6.69
2023-04-20T02:45:41.060Z,6.7
2023-04-20T02:46:41.085Z,6.67
2023-04-20T02:47:41.060Z,6.68
2023-04-20T02:48:41.042Z,6.66
2023-04-20T02:49:41.038Z,6.66
2023-04-20T02:50:41.044Z,6.65
2023-04-20T02:51:41.051Z,6.66
2023-04-20T02:52:41.046Z,6.66
2023-04-20T02:53:43.401Z,6.65
2023-04-20T02:54:46.335Z,6.65
2023-04-20T02:56:41.040Z,6.64
2023-04-20T02:57:41.042Z,6.63
2023-04-20T02:58:41.042Z,6.61
2023-04-20T02:59:41.069Z,6.63
2023-04-20T03:00:41.048Z,6.63
2023-04-20T03:01:41.125Z,6.61
2023-04-20T03:02:41.184Z,6.59
2023-04-20T03:03:41.171Z,6.56
2023-04-20T03:04:41.077Z,6.56
2023-04-20T03:05:41.049Z,6.56
2023-04-20T03:06:41.044Z,6.5
2023-04-20T03:07:41.073Z,6.49
2023-04-20T03:08:41.047Z,6.49
2023-04-20T03:09:41.076Z,6.45
2023-04-20T03:10:41.044Z,6.47
2023-04-20T03:11:41.062Z,6.44
2023-04-20T03:12:41.045Z,6.47
2023-04-20T03:13:41.080Z,6.45
2023-04-20T03:14:43.496Z,6.42
2023-04-20T03:15:46.487Z,6.44
2023-04-20T03:17:41.059Z,6.35
2023-04-20T03:18:41.052Z,6.33
2023-04-20T03:19:41.040Z,6.35
2023-04-20T03:20:41.038Z,6.34
2023-04-20T03:21:41.042Z,6.36
2023-04-20T03:22:41.049Z,6.37
2023-04-20T03:23:41.039Z,6.35
2023-04-20T03:24:41.049Z,6.36
2023-04-20T03:25:41.050Z,6.35
2023-04-20T03:26:41.041Z,6.33
2023-04-20T03:27:41.034Z,6.32
2023-04-20T03:28:41.041Z,6.3
2023-04-20T03:29:41.035Z,6.3
2023-04-20T03:30:41.046Z,6.31
2023-04-20T03:31:41.066Z,6.25
2023-04-20T03:32:41.067Z,6.26
2023-04-20T03:33:41.043Z,6.24
2023-04-20T03:34:41.125Z,6.24
2023-04-20T03:35:43.805Z,6.25
2023-04-20T03:36:46.468Z,6.25
2023-04-20T03:38:41.041Z,6.25
2023-04-20T03:39:41.036Z,6.23
2023-04-20T03:40:41.082Z,6.22
2023-04-20T03:41:41.039Z,6.21
2023-04-20T03:42:41.052Z,6.21
2023-04-20T03:43:41.051Z,6.22
2023-04-20T03:44:41.038Z,6.2
2023-04-20T03:45:41.077Z,6.18
2023-04-20T03:46:41.043Z,6.18
2023-04-20T03:47:41.079Z,6.16
2023-04-20T03:48:41.044Z,6.19
2023-04-20T03:49:41.036Z,6.18
2023-04-20T03:50:41.037Z,6.13
2023-04-20T03:51:41.040Z,6.15
2023-04-20T03:52:41.046Z,6.15
2023-04-20T03:53:41.066Z,6.17
2023-04-20T03:54:41.049Z,6.22
2023-04-20T03:55:41.193Z,6.21
2023-04-20T03:56:43.579Z,6.18
2023-04-20T03:57:46.559Z,6.17
2023-04-20T03:59:41.046Z,6.13
2023-04-20T04:00:41.104Z,6.14
2023-04-20T04:01:41.041Z,6.09
2023-04-20T04:02:41.162Z,6.09
2023-04-20T04:03:41.125Z,6.06
2023-04-20T04:04:41.146Z,6.06
2023-04-20T04:05:41.074Z,6.03
2023-04-20T04:06:41.042Z,6.02
2023-04-20T04:07:41.181Z,6.01
2023-04-20T04:08:41.048Z,5.97
2023-04-20T04:09:41.046Z,5.97
2023-04-20T04:10:41.090Z,5.95
2023-04-20T04:11:41.040Z,5.92
2023-04-20T04:12:41.037Z,5.94
2023-04-20T04:13:41.041Z,5.94
2023-04-20T04:14:41.061Z,5.93
2023-04-20T04:15:41.069Z,5.94
2023-04-20T04:16:41.312Z,5.92
2023-04-20T04:17:43.596Z,5.89
2023-04-20T04:18:46.735Z,5.92
2023-04-20T04:20:41.061Z,5.88
2023-04-20T04:21:41.040Z,5.91
2023-04-20T04:22:41.040Z,5.9
2023-04-20T04:23:41.044Z,5.89
2023-04-20T04:24:41.169Z,5.92
2023-04-20T04:25:41.067Z,5.91
2023-04-20T04:26:41.058Z,5.85
2023-04-20T04:27:41.041Z,5.86
2023-04-20T04:28:41.033Z,5.86
2023-04-20T04:29:41.036Z,5.83
2023-04-20T04:30:41.102Z,5.8
2023-04-20T04:31:41.061Z,5.78
2023-04-20T04:32:41.066Z,5.77
2023-04-20T04:33:41.054Z,5.71
2023-04-20T04:34:41.043Z,5.69
2023-04-20T04:35:41.072Z,5.63
2023-04-20T04:36:41.040Z,5.56
2023-04-20T04:37:41.354Z,5.57
2023-04-20T04:38:43.671Z,5.59
2023-04-20T04:39:46.825Z,5.58
2023-04-20T04:41:41.055Z,5.49
2023-04-20T04:42:41.039Z,5.48
2023-04-20T04:43:41.046Z,5.45
2023-04-20T04:44:41.053Z,5.49
2023-04-20T04:45:41.242Z,5.5
2023-04-20T04:46:41.109Z,5.51
2023-04-20T04:47:41.055Z,5.56
2023-04-20T04:48:41.147Z,5.51
2023-04-20T04:49:41.059Z,5.53
2023-04-20T04:50:41.050Z,5.56
2023-04-20T04:51:41.059Z,5.55
2023-04-20T04:52:41.046Z,5.57
2023-04-20T04:53:41.049Z,5.58
2023-04-20T04:54:41.045Z,5.56
2023-04-20T04:55:41.044Z,5.56
2023-04-20T04:56:41.059Z,5.55
2023-04-20T04:57:41.053Z,5.57
2023-04-20T04:58:41.055Z,5.58
2023-04-20T04:59:44.149Z,5.55
2023-04-20T05:00:46.669Z,5.54
2023-04-20T05:02:41.238Z,5.56
2023-04-20T05:03:41.134Z,5.58
2023-04-20T05:04:41.176Z,5.56
2023-04-20T05:05:41.050Z,5.52
2023-04-20T05:06:41.226Z,5.51
2023-04-20T05:07:41.045Z,5.5
2023-04-20T05:08:41.038Z,5.48
2023-04-20T05:09:41.113Z,5.5
2023-04-20T05:10:41.051Z,5.51
2023-04-20T05:11:41.049Z,5.53
2023-04-20T05:12:41.052Z,5.49
2023-04-20T05:13:41.043Z,5.52
2023-04-20T05:14:41.052Z,5.49
2023-04-20T05:15:43.405Z,5.5
2023-04-20T05:16:41.156Z,5.5
2023-04-20T05:17:41.072Z,5.52
2023-04-20T05:18:41.038Z,5.5
2023-04-20T05:19:41.086Z,5.53
2023-04-20T05:20:43.816Z,5.5
2023-04-20T05:21:46.958Z,5.49
2023-04-20T05:23:41.049Z,5.5
2023-04-20T05:24:41.047Z,5.54
2023-04-20T05:25:41.038Z,5.54
2023-04-20T05:26:41.042Z,5.52
2023-04-20T05:27:41.268Z,5.46
2023-04-20T05:28:41.044Z,5.5
2023-04-20T05:29:41.046Z,5.49
2023-04-20T05:30:41.134Z,5.48
2023-04-20T05:31:41.052Z,5.48
2023-04-20T05:32:41.070Z,5.51
2023-04-20T05:33:41.042Z,5.53
2023-04-20T05:34:41.039Z,5.49
2023-04-20T05:35:41.046Z,5.53
2023-04-20T05:36:41.040Z,5.59
2023-04-20T05:37:41.061Z,5.64
2023-04-20T05:38:41.308Z,5.67
2023-04-20T05:39:41.052Z,5.72
2023-04-20T05:40:41.173Z,5.78
2023-04-20T05:41:44.166Z,5.82
2023-04-20T05:42:46.879Z,5.82
2023-04-20T05:44:41.047Z,5.88
2023-04-20T05:45:41.077Z,5.81
2023-04-20T05:46:41.043Z,5.78
2023-04-20T05:47:41.078Z,5.8
2023-04-20T05:48:41.038Z,5.79
2023-04-20T05:49:41.043Z,5.76
2023-04-20T05:50:41.048Z,5.86
2023-04-20T05:51:41.043Z,5.85
2023-04-20T05:52:41.067Z,5.89
2023-04-20T05:53:41.040Z,5.88
2023-04-20T05:54:41.047Z,5.93
2023-04-20T05:55:41.057Z,5.97
2023-04-20T05:56:41.045Z,5.98
2023-04-20T05:57:41.053Z,5.96
2023-04-20T05:58:41.051Z,5.98
2023-04-20T05:59:41.048Z,5.95
2023-04-20T06:00:41.050Z,5.94
2023-04-20T06:01:41.039Z,5.88
2023-04-20T06:02:41.128Z,5.91
2023-04-20T06:03:43.778Z,5.8
2023-04-20T06:04:46.515Z,5.85
2023-04-20T06:06:41.045Z,5.86
2023-04-20T06:07:41.109Z,5.87
2023-04-20T06:08:41.056Z,5.86
2023-04-20T06:09:41.037Z,5.85
2023-04-20T06:10:41.166Z,5.87
2023-04-20T06:11:41.046Z,5.88
2023-04-20T06:12:41.069Z,5.92
2023-04-20T06:13:41.062Z,5.9
2023-04-20T06:14:41.063Z,5.89
2023-04-20T06:15:41.127Z,5.93
2023-04-20T06:16:41.052Z,5.92
2023-04-20T06:17:41.426Z,5.91
2023-04-20T06:18:41.046Z,5.89
2023-04-20T06:19:41.042Z,5.91
2023-04-20T06:20:41.053Z,5.92
2023-04-20T06:21:41.034Z,5.94
2023-04-20T06:22:41.050Z,5.91
2023-04-20T06:23:41.696Z,5.97
2023-04-20T06:24:45.477Z,5.93
2023-04-20T06:25:48.274Z,5.98
2023-04-20T06:27:41.069Z,5.99
2023-04-20T06:28:41.046Z,5.99
2023-04-20T06:29:41.049Z,6.02
2023-04-20T06:30:41.055Z,6.07
2023-04-20T06:31:41.101Z,5.98
2023-04-20T06:32:41.071Z,6.03
2023-04-20T06:33:41.048Z,5.95
2023-04-20T06:34:41.044Z,5.94
2023-04-20T06:35:41.051Z,5.98
2023-04-20T06:36:41.057Z,6.01
2023-04-20T06:37:41.044Z,6.04
2023-04-20T06:38:41.055Z,6.04
2023-04-20T06:39:41.051Z,6.04
2023-04-20T06:40:41.046Z,6.09
2023-04-20T06:41:41.046Z,6.09
2023-04-20T06:42:41.042Z,6.07
2023-04-20T06:43:41.044Z,6.1
2023-04-20T06:44:41.678Z,6.09
2023-04-20T06:45:45.288Z,6.05
2023-04-20T06:46:47.462Z,6.08
2023-04-20T06:48:41.170Z,6.13
2023-04-20T06:49:41.040Z,6.15
2023-04-20T06:50:41.046Z,6.11
2023-04-20T06:51:41.073Z,6.16
2023-04-20T06:52:41.073Z,6.17
2023-04-20T06:53:41.038Z,6.17
2023-04-20T06:54:41.050Z,6.16
2023-04-20T06:55:41.036Z,6.21
2023-04-20T06:56:41.052Z,6.21
2023-04-20T06:57:41.049Z,6.25
2023-04-20T06:58:41.057Z,6.3
2023-04-20T06:59:41.043Z,6.27
2023-04-20T07:00:41.039Z,6.28
2023-04-20T07:01:41.098Z,6.3
2023-04-20T07:02:41.117Z,6.27
2023-04-20T07:03:41.150Z,6.23
2023-04-20T07:04:41.083Z,6.23
2023-04-20T07:05:41.889Z,6.29
2023-04-20T07:06:45.499Z,6.29
2023-04-20T07:07:47.660Z,6.2
2023-04-20T07:09:41.133Z,6.09
2023-04-20T07:10:41.046Z,6.1
2023-04-20T07:11:41.056Z,6.07
2023-04-20T07:12:44.292Z,6.06
2023-04-20T07:13:41.045Z,6.02
2023-04-20T07:14:41.046Z,5.98
2023-04-20T07:15:41.054Z,5.92
2023-04-20T07:16:41.210Z,5.94
2023-04-20T07:17:41.079Z,5.88
2023-04-20T07:18:41.046Z,5.84
2023-04-20T07:19:41.113Z,5.85
2023-04-20T07:20:41.045Z,5.84
2023-04-20T07:21:41.028Z,5.82
2023-04-20T07:22:41.035Z,5.81
2023-04-20T07:23:42.269Z,5.8
2023-04-20T07:24:41.040Z,5.8
2023-04-20T07:25:41.047Z,5.71
2023-04-20T07:26:42.018Z,5.71
2023-04-20T07:27:45.508Z,5.66
2023-04-20T07:28:47.724Z,5.53
2023-04-20T07:30:41.053Z,5.32
2023-04-20T07:31:41.036Z,5.15
2023-04-20T07:32:41.116Z,4.96
2023-04-20T07:33:41.030Z,4.99
2023-04-20T07:34:41.061Z,4.96
2023-04-20T07:35:41.044Z,4.95
2023-04-20T07:36:41.054Z,4.91
2023-04-20T07:37:41.164Z,4.95
2023-04-20T07:38:41.047Z,4.97
2023-04-20T07:39:41.058Z,5.03
2023-04-20T07:40:41.221Z,5.07
2023-04-20T07:41:41.048Z,5.1
2023-04-20T07:42:41.039Z,5.15
2023-04-20T07:43:41.048Z,5.2
2023-04-20T07:44:41.089Z,5.26
2023-04-20T07:45:41.752Z,5.28
2023-04-20T07:46:41.542Z,5.31
2023-04-20T07:47:42.164Z,5.34
2023-04-20T07:48:45.669Z,5.36
2023-04-20T07:49:48.565Z,5.4
2023-04-20T07:51:41.046Z,5.55
2023-04-20T07:52:41.045Z,5.58
2023-04-20T07:53:41.040Z,5.61
2023-04-20T07:54:41.042Z,5.68
2023-04-20T07:55:41.067Z,5.69
2023-04-20T07:56:41.035Z,5.8
2023-04-20T07:57:41.046Z,5.87
2023-04-20T07:58:41.167Z,5.98
2023-04-20T07:59:41.043Z,6.03
2023-04-20T08:00:41.079Z,6.14
2023-04-20T08:01:41.225Z,6.18
2023-04-20T08:02:41.430Z,6.24
2023-04-20T08:03:41.349Z,6.19
2023-04-20T08:04:41.304Z,6.19
2023-04-20T08:05:41.093Z,6.26
2023-04-20T08:06:41.044Z,6.33
2023-04-20T08:07:41.038Z,6.37
2023-04-20T08:08:42.189Z,6.33
2023-04-20T08:09:45.292Z,6.34
2023-04-20T08:10:48.253Z,6.44
2023-04-20T08:12:41.050Z,6.44
2023-04-20T08:13:41.046Z,6.5
2023-04-20T08:14:41.037Z,6.49
2023-04-20T08:15:41.067Z,6.53
2023-04-20T08:16:41.081Z,6.56
2023-04-20T08:17:41.077Z,6.53
2023-04-20T08:18:41.091Z,6.47
2023-04-20T08:19:45.047Z,6.56
2023-04-20T08:20:41.099Z,6.55
2023-04-20T08:21:41.042Z,6.59
2023-04-20T08:22:41.054Z,6.69
2023-04-20T08:23:41.040Z,6.67
2023-04-20T08:24:41.056Z,6.69
2023-04-20T08:25:41.048Z,6.65
2023-04-20T08:26:41.043Z,6.58
2023-04-20T08:27:41.032Z,6.58
2023-04-20T08:28:41.051Z,6.6
2023-04-20T08:29:42.367Z,6.63
2023-04-20T08:30:45.923Z,6.68
2023-04-20T08:31:49.288Z,6.62
2023-04-20T08:32:41.187Z,6.69
2023-04-20T08:33:41.051Z,6.67
2023-04-20T08:34:41.078Z,6.73
2023-04-20T08:35:41.117Z,6.66
2023-04-20T08:36:41.052Z,6.72
2023-04-20T08:37:41.039Z,6.69
2023-04-20T08:38:41.040Z,6.75
2023-04-20T08:39:41.034Z,6.71
2023-04-20T08:40:41.039Z,6.63
2023-04-20T08:41:41.050Z,6.71
2023-04-20T08:42:41.034Z,6.73
2023-04-20T08:43:41.048Z,6.74
2023-04-20T08:44:41.050Z,6.71
2023-04-20T08:45:41.146Z,6.69
2023-04-20T08:46:41.115Z,6.7
2023-04-20T08:47:41.066Z,6.65
2023-04-20T08:48:41.041Z,6.67
2023-04-20T08:49:41.033Z,6.66
2023-04-20T08:50:42.446Z,6.71
2023-04-20T08:51:43.373Z,6.69
2023-04-20T08:52:46.360Z,6.68
2023-04-20T08:55:41.039Z,6.64
2023-04-20T08:56:41.048Z,6.58
2023-04-20T08:57:41.034Z,6.58
2023-04-20T08:58:41.033Z,6.6
2023-04-20T08:59:41.036Z,6.62
2023-04-20T09:00:41.036Z,6.58
2023-04-20T09:01:41.072Z,6.61
2023-04-20T09:02:41.122Z,6.62
2023-04-20T09:03:41.133Z,6.7
2023-04-20T09:04:41.160Z,6.7
2023-04-20T09:05:41.039Z,6.75
2023-04-20T09:06:41.034Z,6.75
2023-04-20T09:07:41.033Z,6.82
2023-04-20T09:08:41.046Z,6.88
2023-04-20T09:09:41.030Z,6.88
2023-04-20T09:10:41.033Z,6.93
2023-04-20T09:11:41.088Z,6.9
2023-04-20T09:12:43.589Z,7.05
2023-04-20T09:13:46.371Z,7.13
2023-04-20T09:15:41.033Z,7.39
2023-04-20T09:16:41.050Z,7.49
2023-04-20T09:17:41.303Z,7.7
2023-04-20T09:18:41.043Z,7.86
2023-04-20T09:19:41.034Z,7.86
2023-04-20T09:20:41.027Z,7.91
2023-04-20T09:21:41.040Z,8.01
2023-04-20T09:22:41.084Z,7.97
2023-04-20T09:23:41.038Z,8.01
2023-04-20T09:24:41.039Z,7.81
2023-04-20T09:25:41.059Z,7.76
2023-04-20T09:26:41.059Z,7.73
2023-04-20T09:27:41.044Z,7.77
2023-04-20T09:28:41.039Z,7.78
2023-04-20T09:29:41.048Z,7.81
2023-04-20T09:30:41.040Z,7.79
2023-04-20T09:31:41.080Z,7.77
2023-04-20T09:32:41.105Z,7.78
2023-04-20T09:33:43.614Z,7.76
2023-04-20T09:34:46.656Z,7.73
2023-04-20T09:36:41.064Z,7.74
2023-04-20T09:37:41.046Z,7.77
2023-04-20T09:38:41.039Z,7.77
2023-04-20T09:39:41.040Z,7.8
2023-04-20T09:40:41.043Z,7.86
2023-04-20T09:41:41.041Z,7.95
2023-04-20T09:42:41.049Z,8.03
2023-04-20T09:43:41.041Z,8.1
2023-04-20T09:44:41.047Z,8.17
2023-04-20T09:45:41.057Z,8.18
2023-04-20T09:46:41.038Z,8.18
2023-04-20T09:47:41.109Z,8.23
2023-04-20T09:48:41.037Z,8.3
2023-04-20T09:49:41.056Z,8.37
2023-04-20T09:50:48.282Z,8.43
2023-04-20T09:51:41.039Z,8.42
2023-04-20T09:52:41.053Z,8.45
2023-04-20T09:53:41.142Z,8.52
2023-04-20T09:54:43.682Z,8.77
2023-04-20T09:55:46.746Z,8.87
2023-04-20T09:57:41.038Z,9.19
2023-04-20T09:58:41.040Z,9.21
2023-04-20T09:59:41.041Z,9.09
2023-04-20T10:00:41.049Z,9.11
2023-04-20T10:01:41.176Z,9.03
2023-04-20T10:02:41.098Z,9.08
2023-04-20T10:03:41.165Z,9.11
2023-04-20T10:04:41.114Z,9.09
2023-04-20T10:05:41.078Z,9.04
2023-04-20T10:06:41.034Z,9.13
2023-04-20T10:07:41.029Z,9.17
2023-04-20T10:08:41.038Z,9.26
2023-04-20T10:09:41.034Z,9.41
2023-04-20T10:10:41.035Z,9.69
2023-04-20T10:11:52.207Z,9.85
2023-04-20T10:12:41.040Z,9.58
2023-04-20T10:13:41.033Z,9.34
2023-04-20T10:14:41.300Z,9.28
2023-04-20T10:15:43.704Z,9.11
2023-04-20T10:16:46.793Z,8.92
2023-04-20T10:18:41.066Z,8.69
2023-04-20T10:19:41.056Z,8.66
2023-04-20T10:20:41.054Z,8.62
2023-04-20T10:21:41.038Z,8.72
2023-04-20T10:22:41.039Z,8.79
2023-04-20T10:23:41.041Z,9.08
2023-04-20T10:24:41.059Z,9.38
2023-04-20T10:25:41.059Z,9.77
2023-04-20T10:26:41.039Z,10.04
2023-04-20T10:27:41.041Z,10.37
2023-04-20T10:28:41.045Z,10.35
2023-04-20T10:29:41.059Z,10.1
2023-04-20T10:30:41.048Z,10.07
2023-04-20T10:31:41.067Z,9.79
2023-04-20T10:32:41.076Z,9.7
2023-04-20T10:33:41.051Z,9.58
2023-04-20T10:34:41.056Z,9.45
2023-04-20T10:35:41.868Z,9.36
2023-04-20T10:36:43.722Z,9.25
2023-04-20T10:37:46.742Z,9.07
2023-04-20T10:39:41.052Z,9.45
2023-04-20T10:40:41.030Z,9.72
2023-04-20T10:41:41.059Z,9.97
2023-04-20T10:42:41.048Z,10.13
2023-04-20T10:43:41.108Z,10.16
2023-04-20T10:44:41.072Z,10.22
2023-04-20T10:45:41.053Z,9.93
2023-04-20T10:46:41.156Z,9.85
2023-04-20T10:47:41.147Z,9.86
2023-04-20T10:48:41.056Z,9.82
2023-04-20T10:49:41.056Z,9.96
2023-04-20T10:50:41.044Z,10.1
2023-04-20T10:51:41.040Z,10.17
2023-04-20T10:52:41.065Z,10.03
2023-04-20T10:53:41.076Z,10.04
2023-04-20T10:54:41.061Z,9.96
2023-04-20T10:55:41.054Z,9.97
2023-04-20T10:56:41.501Z,9.92
2023-04-20T10:57:43.785Z,9.86
2023-04-20T10:58:46.867Z,9.83
2023-04-20T11:00:41.050Z,9.63
2023-04-20T11:01:41.118Z,9.53
2023-04-20T11:02:41.121Z,9.45
2023-04-20T11:03:41.106Z,9.35
2023-04-20T11:04:41.071Z,9.35
2023-04-20T11:05:41.069Z,9.33
2023-04-20T11:06:41.037Z,9.26
2023-04-20T11:07:41.146Z,9.33
2023-04-20T11:08:41.124Z,9.38
2023-04-20T11:09:41.043Z,9.37
2023-04-20T11:10:41.052Z,9.37
2023-04-20T11:11:41.044Z,9.39
2023-04-20T11:12:41.048Z,9.44
2023-04-20T11:13:41.151Z,9.52
2023-04-20T11:14:41.060Z,9.67
2023-04-20T11:15:41.039Z,9.75
2023-04-20T11:16:49.499Z,9.77
2023-04-20T11:17:41.128Z,9.78
2023-04-20T11:18:43.896Z,9.77
2023-04-20T11:19:47.015Z,9.73
2023-04-20T11:21:41.044Z,9.41
2023-04-20T11:22:41.084Z,9.4
2023-04-20T11:23:41.068Z,9.46
2023-04-20T11:24:41.187Z,9.57
2023-04-20T11:25:41.164Z,9.64
2023-04-20T11:26:41.038Z,9.74
2023-04-20T11:27:41.086Z,9.83
2023-04-20T11:28:41.198Z,9.99
2023-04-20T11:29:41.075Z,10.15
2023-04-20T11:30:41.077Z,10.05
2023-04-20T11:31:41.178Z,10.03
2023-04-20T11:32:41.327Z,10.04
2023-04-20T11:33:41.101Z,9.96
2023-04-20T11:34:41.039Z,10.02
2023-04-20T11:35:41.076Z,9.85
2023-04-20T11:36:41.091Z,9.8
2023-04-20T11:37:41.033Z,9.65
2023-04-20T11:38:41.120Z,9.6
2023-04-20T11:39:43.999Z,9.67
2023-04-20T11:40:47.118Z,9.77
2023-04-20T11:42:41.088Z,10.09
2023-04-20T11:43:41.044Z,10.16
2023-04-20T11:44:41.071Z,10.24
2023-04-20T11:45:41.067Z,10.1
2023-04-20T11:46:41.093Z,10.13
2023-04-20T11:47:41.315Z,10.11
2023-04-20T11:48:41.203Z,10.12
2023-04-20T11:49:41.161Z,10.06
2023-04-20T11:50:44.076Z,10.07
2023-04-20T11:51:41.034Z,10.13
2023-04-20T11:52:41.187Z,10.22
2023-04-20T11:53:41.125Z,10.29
2023-04-20T11:54:41.124Z,10.43
2023-04-20T11:55:41.052Z,10.36
2023-04-20T11:56:42.346Z,10.34
2023-04-20T11:57:41.295Z,10.4
2023-04-20T11:58:41.145Z,10.43
2023-04-20T11:59:41.107Z,10.35
2023-04-20T12:00:41.604Z,10.26
2023-04-20T12:01:45.005Z,10.13
2023-04-20T12:02:47.325Z,10.12
2023-04-20T12:04:41.336Z,10.11
2023-04-20T12:05:41.219Z,10.18
2023-04-20T12:06:41.153Z,10.33
2023-04-20T12:07:41.078Z,10.43
2023-04-20T12:08:41.085Z,10.59
2023-04-20T12:09:41.222Z,10.57
2023-04-20T12:10:41.182Z,10.63
2023-04-20T12:11:41.226Z,10.61
2023-04-20T12:12:41.110Z,10.52
2023-04-20T12:13:41.163Z,10.48
2023-04-20T12:14:41.337Z,10.43
2023-04-20T12:15:41.270Z,10.42
2023-04-20T12:16:41.077Z,10.38
2023-04-20T12:17:41.150Z,10.32
2023-04-20T12:18:41.102Z,10.45
2023-04-20T12:19:41.191Z,10.68
2023-04-20T12:20:41.102Z,10.77
2023-04-20T12:21:41.604Z,10.75
2023-04-20T12:22:45.096Z,10.79
2023-04-20T12:23:47.200Z,10.79
2023-04-20T12:25:41.189Z,10.82
2023-04-20T12:26:41.285Z,10.65
2023-04-20T12:27:41.397Z,10.57
2023-04-20T12:28:41.239Z,10.49
2023-04-20T12:29:41.114Z,10.4
2023-04-20T12:30:41.281Z,10.49
2023-04-20T12:31:41.429Z,10.39
2023-04-20T12:32:41.095Z,10.42
2023-04-20T12:33:41.074Z,10.44
2023-04-20T12:34:41.166Z,10.71
2023-04-20T12:35:41.213Z,10.93
2023-04-20T12:36:41.203Z,11.22
2023-04-20T12:37:41.185Z,11.47
2023-04-20T12:38:41.166Z,11.77
2023-04-20T12:39:41.437Z,12.06
2023-04-20T12:40:41.170Z,12.23
2023-04-20T12:41:41.155Z,12.43
2023-04-20T12:42:41.665Z,12.67
2023-04-20T12:43:45.190Z,12.91
2023-04-20T12:44:47.313Z,12.96
2023-04-20T12:46:41.236Z,12.89
2023-04-20T12:47:41.219Z,12.97
2023-04-20T12:48:41.262Z,12.65
2023-04-20T12:49:41.175Z,12.61
2023-04-20T12:50:41.295Z,12.61
2023-04-20T12:51:41.193Z,12.5
2023-04-20T12:52:41.280Z,11.83
2023-04-20T12:53:41.153Z,11.56
2023-04-20T12:54:44.518Z,11.67
2023-04-20T12:55:41.383Z,11.67
2023-04-20T12:56:41.319Z,11.44
2023-04-20T12:57:41.207Z,11.42
2023-04-20T12:58:41.227Z,11.2
2023-04-20T12:59:41.295Z,11.07
2023-04-20T13:00:41.510Z,10.96
2023-04-20T13:01:41.127Z,11.38
2023-04-20T13:02:41.424Z,11.72
2023-04-20T13:03:41.886Z,12.04
2023-04-20T13:04:45.237Z,12.15
2023-04-20T13:05:48.207Z,12.2
2023-04-20T13:07:41.259Z,12.03
2023-04-20T13:08:41.318Z,11.94
2023-04-20T13:09:41.282Z,11.76
2023-04-20T13:10:41.215Z,11.61
2023-04-20T13:11:41.425Z,11.44
2023-04-20T13:12:41.299Z,11.56
2023-04-20T13:13:41.243Z,11.55
2023-04-20T13:14:41.274Z,11.38
2023-04-20T13:15:41.415Z,11.28
2023-04-20T13:16:41.498Z,11.24
2023-04-20T13:17:41.374Z,11.11
2023-04-20T13:18:41.325Z,11.09
2023-04-20T13:19:41.348Z,11.17
2023-04-20T13:20:41.493Z,11.34
2023-04-20T13:21:41.293Z,11.54
2023-04-20T13:22:54.618Z,11.89
2023-04-20T13:23:41.406Z,12.08
2023-04-20T13:24:41.887Z,12.39
2023-04-20T13:25:45.354Z,12.3
2023-04-20T13:26:47.529Z,12.53
2023-04-20T13:28:41.260Z,12.5
2023-04-20T13:29:41.304Z,12.38
2023-04-20T13:30:41.332Z,11.99
2023-04-20T13:31:41.079Z,11.71
2023-04-20T13:32:41.258Z,11.29
2023-04-20T13:33:41.235Z,11.29
2023-04-20T13:34:41.495Z,11.28
2023-04-20T13:35:41.345Z,11.28
2023-04-20T13:36:41.274Z,11.31
2023-04-20T13:37:41.300Z,11.54
2023-04-20T13:38:41.318Z,11.96
2023-04-20T13:39:41.262Z,12.36
2023-04-20T13:40:41.259Z,12.3
2023-04-20T13:41:41.339Z,12.3
2023-04-20T13:42:41.037Z,12.41
2023-04-20T13:43:41.082Z,12.44
2023-04-20T13:44:41.235Z,12.51
2023-04-20T13:45:42.053Z,12.47
2023-04-20T13:46:44.932Z,12.53
2023-04-20T13:47:48.403Z,12.36
2023-04-20T13:49:41.047Z,12.26
2023-04-20T13:50:41.282Z,12.36
2023-04-20T13:51:41.040Z,12.42
2023-04-20T13:52:41.045Z,12.56
2023-04-20T13:53:41.058Z,12.5
2023-04-20T13:54:41.042Z,12.33
2023-04-20T13:55:41.294Z,12.26